createdAt,value
2018-09-11T00:00:35.909Z,1008.85
2018-09-11T00:01:35.757Z,1008.84
2018-09-11T00:02:35.642Z,1008.83
2018-09-11T00:03:35.460Z,1008.84
2018-09-11T00:04:35.311Z,1008.84
2018-09-11T00:05:35.163Z,1008.88
2018-09-11T00:06:35.017Z,1008.85
2018-09-11T00:07:34.890Z,1008.87
2018-09-11T00:08:34.723Z,1008.90
2018-09-11T00:09:34.578Z,1008.85
2018-09-11T00:10:34.428Z,1008.86
2018-09-11T00:11:34.283Z,1008.86
2018-09-11T00:12:34.167Z,1008.88
2018-09-11T00:13:33.993Z,1008.88
2018-09-11T00:14:33.852Z,1008.87
2018-09-11T00:15:33.713Z,1008.88
2018-09-11T00:16:33.569Z,1008.93
2018-09-11T00:17:33.450Z,1008.97
2018-09-11T00:18:33.284Z,1008.92
2018-09-11T00:19:33.145Z,1008.93
2018-09-11T00:20:33.010Z,1008.96
2018-09-11T00:21:32.864Z,1008.95
2018-09-11T00:22:32.755Z,1008.96
2018-09-11T00:23:32.599Z,1008.96
2018-09-11T00:24:32.456Z,1008.89
2018-09-11T00:25:32.324Z,1008.91
2018-09-11T00:26:32.184Z,1008.92
2018-09-11T00:27:32.074Z,1008.88
2018-09-11T00:28:31.913Z,1008.85
2018-09-11T00:29:31.777Z,1008.93
2018-09-11T00:30:31.639Z,1008.88
2018-09-11T00:31:31.503Z,1008.89
2018-09-11T00:32:31.395Z,1008.89
2018-09-11T00:33:31.234Z,1008.92
2018-09-11T00:34:31.097Z,1008.86
2018-09-11T00:35:30.962Z,1008.89
2018-09-11T00:36:30.818Z,1008.93
2018-09-11T00:37:30.713Z,1008.95
2018-09-11T00:38:30.541Z,1008.91
2018-09-11T00:39:30.404Z,1008.92
2018-09-11T00:40:30.267Z,1008.92
2018-09-11T00:41:30.129Z,1008.91
2018-09-11T00:42:30.001Z,1008.95
2018-09-11T00:43:29.880Z,1008.94
2018-09-11T00:44:29.722Z,1008.93
2018-09-11T00:45:29.595Z,1008.92
2018-09-11T00:46:29.461Z,1008.95
2018-09-11T00:47:29.334Z,1008.91
2018-09-11T00:48:29.230Z,1008.97
2018-09-11T00:49:29.078Z,1008.93
2018-09-11T00:50:28.953Z,1008.97
2018-09-11T00:51:28.819Z,1008.94
2018-09-11T00:52:28.695Z,1009.04
2018-09-11T00:53:28.599Z,1009.01
2018-09-11T00:54:28.437Z,1009.00
2018-09-11T00:55:28.302Z,1009.02
2018-09-11T00:56:28.171Z,1008.97
2018-09-11T00:57:28.042Z,1009.02
2018-09-11T00:58:27.943Z,1009.00
2018-09-11T00:59:27.785Z,1009.05
2018-09-11T01:00:27.649Z,1009.06
2018-09-11T01:01:27.533Z,1009.08
2018-09-11T01:02:27.376Z,1009.09
2018-09-11T01:03:27.273Z,1009.07
2018-09-11T01:04:27.112Z,1009.08
2018-09-11T01:05:26.974Z,1009.15
2018-09-11T01:06:26.842Z,1009.10
2018-09-11T01:07:26.707Z,1009.13
2018-09-11T01:08:26.604Z,1009.18
2018-09-11T01:09:26.443Z,1009.15
2018-09-11T01:10:26.308Z,1009.26
2018-09-11T01:11:26.179Z,1009.24
2018-09-11T01:12:26.049Z,1009.22
2018-09-11T01:13:25.951Z,1009.27
2018-09-11T01:14:25.791Z,1009.29
2018-09-11T01:15:25.658Z,1009.28
2018-09-11T01:16:25.530Z,1009.25
2018-09-11T01:17:25.402Z,1009.23
2018-09-11T01:18:25.303Z,1009.25
2018-09-11T01:19:25.144Z,1009.27
2018-09-11T01:20:25.018Z,1009.24
2018-09-11T01:21:24.888Z,1009.28
2018-09-11T01:22:24.768Z,1009.27
2018-09-11T01:23:24.658Z,1009.27
2018-09-11T01:24:24.499Z,1009.26
2018-09-11T01:25:24.372Z,1009.25
2018-09-11T01:26:24.248Z,1009.25
2018-09-11T01:27:24.122Z,1009.21
2018-09-11T01:28:24.023Z,1009.23
2018-09-11T01:29:23.863Z,1009.26
2018-09-11T01:30:23.733Z,1009.27
2018-09-11T01:31:23.608Z,1009.30
2018-09-11T01:32:23.473Z,1009.29
2018-09-11T01:33:23.373Z,1009.35
2018-09-11T01:34:23.215Z,1009.32
2018-09-11T01:35:23.080Z,1009.34
2018-09-11T01:36:22.952Z,1009.35
2018-09-11T01:37:22.824Z,1009.37
2018-09-11T01:38:22.720Z,1009.35
2018-09-11T01:39:22.567Z,1009.37
2018-09-11T01:40:22.436Z,1009.36
2018-09-11T01:41:22.319Z,1009.34
2018-09-11T01:42:22.186Z,1009.38
2018-09-11T01:43:22.082Z,1009.33
2018-09-11T01:44:21.929Z,1009.35
2018-09-11T01:45:21.804Z,1009.35
2018-09-11T01:46:21.673Z,1009.31
2018-09-11T01:47:21.549Z,1009.37
2018-09-11T01:48:21.462Z,1009.35
2018-09-11T01:49:21.294Z,1009.35
2018-09-11T01:50:21.176Z,1009.34
2018-09-11T01:51:21.042Z,1009.35
2018-09-11T01:52:20.908Z,1009.31
2018-09-11T01:53:20.787Z,1009.29
2018-09-11T01:54:20.692Z,1009.28
2018-09-11T01:55:20.536Z,1009.30
2018-09-11T01:56:20.411Z,1009.32
2018-09-11T01:57:20.291Z,1009.31
2018-09-11T01:58:20.181Z,1009.35
2018-09-11T01:59:20.075Z,1009.32
2018-09-11T02:00:19.921Z,1009.33
2018-09-11T02:01:19.801Z,1009.33
2018-09-11T02:02:19.678Z,1009.29
2018-09-11T02:03:19.560Z,1009.37
2018-09-11T02:04:19.462Z,1009.35
2018-09-11T02:05:19.320Z,1009.28
2018-09-11T02:06:19.211Z,1009.33
2018-09-11T02:07:19.079Z,1009.30
2018-09-11T02:08:18.960Z,1009.29
2018-09-11T02:09:18.865Z,1009.26
2018-09-11T02:10:18.721Z,1009.31
2018-09-11T02:11:18.604Z,1009.24
2018-09-11T02:12:18.489Z,1009.28
2018-09-11T02:13:18.372Z,1009.32
2018-09-11T02:14:18.280Z,1009.36
2018-09-11T02:15:18.137Z,1009.34
2018-09-11T02:16:18.011Z,1009.38
2018-09-11T02:17:17.884Z,1009.40
2018-09-11T02:18:17.759Z,1009.41
2018-09-11T02:19:17.664Z,1009.42
2018-09-11T02:20:17.506Z,1009.44
2018-09-11T02:21:17.398Z,1009.48
2018-09-11T02:22:17.274Z,1009.43
2018-09-11T02:23:17.145Z,1009.47
2018-09-11T02:24:17.047Z,1009.44
2018-09-11T02:25:16.902Z,1009.49
2018-09-11T02:26:16.780Z,1009.48
2018-09-11T02:27:16.648Z,1009.47
2018-09-11T02:28:16.527Z,1009.51
2018-09-11T02:29:16.433Z,1009.52
2018-09-11T02:30:16.282Z,1009.50
2018-09-11T02:31:16.164Z,1009.52
2018-09-11T02:32:16.031Z,1009.55
2018-09-11T02:33:15.914Z,1009.57
2018-09-11T02:34:15.819Z,1009.58
2018-09-11T02:35:15.668Z,1009.57
2018-09-11T02:36:15.544Z,1009.56
2018-09-11T02:37:15.423Z,1009.57
2018-09-11T02:38:15.296Z,1009.58
2018-09-11T02:39:15.199Z,1009.59
2018-09-11T02:40:15.053Z,1009.62
2018-09-11T02:41:14.939Z,1009.57
2018-09-11T02:42:14.808Z,1009.58
2018-09-11T02:43:14.688Z,1009.63
2018-09-11T02:44:14.596Z,1009.57
2018-09-11T02:45:14.456Z,1009.55
2018-09-11T02:46:14.323Z,1009.59
2018-09-11T02:47:14.189Z,1009.57
2018-09-11T02:48:14.076Z,1009.61
2018-09-11T02:49:13.976Z,1009.59
2018-09-11T02:50:13.823Z,1009.62
2018-09-11T02:51:13.704Z,1009.60
2018-09-11T02:52:13.588Z,1009.62
2018-09-11T02:53:13.464Z,1009.62
2018-09-11T02:54:13.387Z,1009.63
2018-09-11T02:55:13.220Z,1009.61
2018-09-11T02:56:13.103Z,1009.62
2018-09-11T02:57:12.984Z,1009.62
2018-09-11T02:58:12.857Z,1009.63
2018-09-11T02:59:12.736Z,1009.65
2018-09-11T03:00:12.644Z,1009.64
2018-09-11T03:01:12.487Z,1009.65
2018-09-11T03:02:12.368Z,1009.62
2018-09-11T03:03:12.242Z,1009.65
2018-09-11T03:04:12.114Z,1009.65
2018-09-11T03:05:12.018Z,1009.66
2018-09-11T03:06:11.865Z,1009.65
2018-09-11T03:07:11.740Z,1009.67
2018-09-11T03:08:11.755Z,1009.65
2018-09-11T03:09:11.501Z,1009.64
2018-09-11T03:10:11.409Z,1009.69
2018-09-11T03:11:11.270Z,1009.67
2018-09-11T03:12:11.147Z,1009.68
2018-09-11T03:13:11.028Z,1009.72
2018-09-11T03:14:10.910Z,1009.71
2018-09-11T03:15:10.818Z,1009.73
2018-09-11T03:16:10.672Z,1009.67
2018-09-11T03:17:10.554Z,1009.73
2018-09-11T03:18:10.435Z,1009.73
2018-09-11T03:19:10.324Z,1009.72
2018-09-11T03:20:10.238Z,1009.78
2018-09-11T03:21:10.085Z,1009.78
2018-09-11T03:22:09.970Z,1009.80
2018-09-11T03:23:09.854Z,1009.87
2018-09-11T03:24:09.749Z,1009.82
2018-09-11T03:25:09.659Z,1009.88
2018-09-11T03:26:09.520Z,1009.87
2018-09-11T03:27:09.406Z,1009.92
2018-09-11T03:28:09.300Z,1009.88
2018-09-11T03:29:09.200Z,1009.89
2018-09-11T03:30:09.110Z,1009.93
2018-09-11T03:31:08.974Z,1009.84
2018-09-11T03:32:08.870Z,1009.90
2018-09-11T03:33:08.762Z,1009.90
2018-09-11T03:34:08.655Z,1009.92
2018-09-11T03:35:08.571Z,1009.87
2018-09-11T03:36:08.442Z,1009.88
2018-09-11T03:37:08.338Z,1009.91
2018-09-11T03:38:08.236Z,1009.91
2018-09-11T03:39:08.136Z,1009.86
2018-09-11T03:40:08.062Z,1009.87
2018-09-11T03:41:07.926Z,1009.89
2018-09-11T03:42:07.825Z,1009.87
2018-09-11T03:43:07.719Z,1009.90
2018-09-11T03:44:07.633Z,1009.89
2018-09-11T03:45:07.545Z,1009.94
2018-09-11T03:46:07.420Z,1009.91
2018-09-11T03:47:07.314Z,1009.91
2018-09-11T03:48:07.228Z,1009.89
2018-09-11T03:49:07.107Z,1009.91
2018-09-11T03:50:07.040Z,1009.91
2018-09-11T03:51:06.907Z,1009.95
2018-09-11T03:52:06.860Z,1009.92
2018-09-11T03:53:06.710Z,1009.91
2018-09-11T03:54:06.621Z,1009.92
2018-09-11T03:55:06.539Z,1009.95
2018-09-11T03:56:06.415Z,1009.93
2018-09-11T03:57:06.318Z,1009.91
2018-09-11T03:58:06.216Z,1009.91
2018-09-11T03:59:06.161Z,1009.95
2018-09-11T04:00:06.038Z,1009.93
2018-09-11T04:01:05.908Z,1009.93
2018-09-11T04:02:05.813Z,1009.93
2018-09-11T04:03:05.725Z,1009.93
2018-09-11T04:04:05.609Z,1009.89
2018-09-11T04:05:05.537Z,1009.89
2018-09-11T04:06:05.412Z,1009.86
2018-09-11T04:07:05.314Z,1009.86
2018-09-11T04:08:05.209Z,1009.88
2018-09-11T04:09:05.095Z,1009.86
2018-09-11T04:10:05.031Z,1009.85
2018-09-11T04:11:04.921Z,1009.81
2018-09-11T04:12:04.786Z,1009.83
2018-09-11T04:13:04.684Z,1009.84
2018-09-11T04:14:04.573Z,1009.85
2018-09-11T04:15:04.471Z,1009.89
2018-09-11T04:16:04.394Z,1009.87
2018-09-11T04:17:04.266Z,1009.86
2018-09-11T04:18:04.164Z,1009.86
2018-09-11T04:19:04.067Z,1009.90
2018-09-11T04:20:03.969Z,1009.92
2018-09-11T04:21:03.890Z,1009.90
2018-09-11T04:22:03.769Z,1009.90
2018-09-11T04:23:03.674Z,1009.91
2018-09-11T04:24:03.565Z,1009.90
2018-09-11T04:25:03.472Z,1009.94
2018-09-11T04:26:03.395Z,1009.91
2018-09-11T04:27:03.272Z,1009.91
2018-09-11T04:28:03.178Z,1009.92
2018-09-11T04:29:03.123Z,1009.91
2018-09-11T04:30:02.985Z,1009.89
2018-09-11T04:31:02.919Z,1009.94
2018-09-11T04:32:02.797Z,1009.93
2018-09-11T04:33:02.701Z,1009.98
2018-09-11T04:34:02.602Z,1009.95
2018-09-11T04:35:02.503Z,1009.98
2018-09-11T04:36:02.432Z,1009.96
2018-09-11T04:37:02.303Z,1010.02
2018-09-11T04:38:02.213Z,1010.03
2018-09-11T04:39:02.116Z,1010.02
2018-09-11T04:40:02.017Z,1010.08
2018-09-11T04:41:01.946Z,1010.05
2018-09-11T04:42:01.821Z,1010.02
2018-09-11T04:43:01.800Z,1010.03
2018-09-11T04:44:01.623Z,1010.02
2018-09-11T04:45:01.526Z,1010.04
2018-09-11T04:46:01.468Z,1010.06
2018-09-11T04:47:01.335Z,1010.06
2018-09-11T04:48:01.239Z,1010.08
2018-09-11T04:49:01.140Z,1010.09
2018-09-11T04:50:01.039Z,1010.05
2018-09-11T04:51:00.946Z,1010.07
2018-09-11T04:52:00.870Z,1010.09
2018-09-11T04:53:00.745Z,1010.08
2018-09-11T04:54:00.655Z,1010.10
2018-09-11T04:55:00.538Z,1010.11
2018-09-11T04:56:00.449Z,1010.13
2018-09-11T04:57:00.359Z,1010.15
2018-09-11T04:58:00.230Z,1010.11
2018-09-11T04:59:00.127Z,1010.12
2018-09-11T05:00:00.027Z,1010.15
2018-09-11T05:00:59.925Z,1010.14
2018-09-11T05:01:59.855Z,1010.17
2018-09-11T05:02:59.726Z,1010.24
2018-09-11T05:03:59.630Z,1010.20
2018-09-11T05:04:59.527Z,1010.23
2018-09-11T05:05:59.433Z,1010.21
2018-09-11T05:06:59.364Z,1010.26
2018-09-11T05:07:59.238Z,1010.28
2018-09-11T05:08:59.140Z,1010.30
2018-09-11T05:09:59.100Z,1010.32
2018-09-11T05:10:58.934Z,1010.35
2018-09-11T05:11:58.869Z,1010.30
2018-09-11T05:12:58.733Z,1010.33
2018-09-11T05:13:58.631Z,1010.26
2018-09-11T05:14:58.529Z,1010.33
2018-09-11T05:15:58.431Z,1010.34
2018-09-11T05:16:58.358Z,1010.33
2018-09-11T05:17:58.230Z,1010.36
2018-09-11T05:18:58.187Z,1010.36
2018-09-11T05:19:58.038Z,1010.36
2018-09-11T05:20:57.960Z,1010.38
2018-09-11T05:21:57.892Z,1010.35
2018-09-11T05:22:57.714Z,1010.39
2018-09-11T05:23:57.609Z,1010.41
2018-09-11T05:24:57.511Z,1010.42
2018-09-11T05:25:57.401Z,1010.41
2018-09-11T05:26:57.326Z,1010.40
2018-09-11T05:27:57.195Z,1010.44
2018-09-11T05:28:57.096Z,1010.38
2018-09-11T05:29:56.992Z,1010.42
2018-09-11T05:30:56.898Z,1010.42
2018-09-11T05:31:56.811Z,1010.42
2018-09-11T05:32:56.685Z,1010.46
2018-09-11T05:33:56.577Z,1010.39
2018-09-11T05:34:56.481Z,1010.43
2018-09-11T05:35:56.377Z,1010.40
2018-09-11T05:36:56.311Z,1010.41
2018-09-11T05:37:56.179Z,1010.40
2018-09-11T05:38:56.084Z,1010.35
2018-09-11T05:39:55.986Z,1010.39
2018-09-11T05:40:55.890Z,1010.39
2018-09-11T05:41:55.824Z,1010.39
2018-09-11T05:42:55.701Z,1010.34
2018-09-11T05:43:55.601Z,1010.36
2018-09-11T05:44:55.505Z,1010.40
2018-09-11T05:45:55.410Z,1010.35
2018-09-11T05:46:55.345Z,1010.35
2018-09-11T05:47:55.224Z,1010.37
2018-09-11T05:48:55.125Z,1010.36
2018-09-11T05:49:55.028Z,1010.38
2018-09-11T05:50:54.935Z,1010.38
2018-09-11T05:51:54.887Z,1010.43
2018-09-11T05:52:54.743Z,1010.42
2018-09-11T05:53:54.644Z,1010.42
2018-09-11T05:54:54.547Z,1010.38
2018-09-11T05:55:54.456Z,1010.46
2018-09-11T05:56:54.359Z,1010.43
2018-09-11T05:57:54.297Z,1010.48
2018-09-11T05:58:54.172Z,1010.47
2018-09-11T05:59:54.077Z,1010.48
2018-09-11T06:00:53.977Z,1010.48
2018-09-11T06:01:53.882Z,1010.49
2018-09-11T06:02:53.822Z,1010.54
2018-09-11T06:03:53.694Z,1010.59
2018-09-11T06:04:53.593Z,1010.60
2018-09-11T06:05:53.493Z,1010.61
2018-09-11T06:06:53.394Z,1010.65
2018-09-11T06:07:53.325Z,1010.64
2018-09-11T06:08:53.201Z,1010.63
2018-09-11T06:09:53.104Z,1010.66
2018-09-11T06:10:53.004Z,1010.70
2018-09-11T06:11:52.912Z,1010.72
2018-09-11T06:12:52.829Z,1010.73
2018-09-11T06:13:52.698Z,1010.73
2018-09-11T06:14:52.603Z,1010.76
2018-09-11T06:15:52.494Z,1010.78
2018-09-11T06:16:52.402Z,1010.79
2018-09-11T06:17:52.319Z,1010.80
2018-09-11T06:18:52.191Z,1010.77
2018-09-11T06:19:52.093Z,1010.79
2018-09-11T06:20:51.992Z,1010.77
2018-09-11T06:21:51.889Z,1010.76
2018-09-11T06:22:51.828Z,1010.78
2018-09-11T06:23:51.687Z,1010.76
2018-09-11T06:24:51.578Z,1010.74
2018-09-11T06:25:51.568Z,1010.74
2018-09-11T06:26:51.367Z,1010.73
2018-09-11T06:27:51.290Z,1010.75
2018-09-11T06:28:51.269Z,1010.73
2018-09-11T06:29:51.062Z,1010.75
2018-09-11T06:30:50.958Z,1010.76
2018-09-11T06:31:50.846Z,1010.75
2018-09-11T06:32:50.771Z,1010.78
2018-09-11T06:33:50.636Z,1010.77
2018-09-11T06:34:50.534Z,1010.73
2018-09-11T06:35:50.432Z,1010.70
2018-09-11T06:36:50.338Z,1010.73
2018-09-11T06:37:50.263Z,1010.69
2018-09-11T06:38:50.114Z,1010.69
2018-09-11T06:39:50.012Z,1010.68
2018-09-11T06:40:49.912Z,1010.73
2018-09-11T06:41:49.807Z,1010.68
2018-09-11T06:42:49.736Z,1010.67
2018-09-11T06:43:49.623Z,1010.74
2018-09-11T06:44:49.635Z,1010.69
2018-09-11T06:45:49.443Z,1010.68
2018-09-11T06:46:49.384Z,1010.65
2018-09-11T06:47:49.241Z,1010.67
2018-09-11T06:48:49.103Z,1010.69
2018-09-11T06:49:49.001Z,1010.69
2018-09-11T06:50:48.898Z,1010.66
2018-09-11T06:51:48.790Z,1010.72
2018-09-11T06:52:48.732Z,1010.73
2018-09-11T06:53:48.585Z,1010.71
2018-09-11T06:54:48.503Z,1010.73
2018-09-11T06:55:48.383Z,1010.75
2018-09-11T06:56:48.267Z,1010.80
2018-09-11T06:57:48.160Z,1010.77
2018-09-11T06:58:48.088Z,1010.78
2018-09-11T06:59:47.954Z,1010.81
2018-09-11T07:00:47.853Z,1010.80
2018-09-11T07:01:47.820Z,1010.76
2018-09-11T07:02:47.646Z,1010.80
2018-09-11T07:03:47.584Z,1010.83
2018-09-11T07:04:47.446Z,1010.83
2018-09-11T07:05:47.340Z,1010.80
2018-09-11T07:06:47.240Z,1010.77
2018-09-11T07:07:47.140Z,1010.86
2018-09-11T07:08:47.069Z,1010.85
2018-09-11T07:09:46.944Z,1010.85
2018-09-11T07:10:46.841Z,1010.86
2018-09-11T07:11:46.743Z,1010.85
2018-09-11T07:12:46.633Z,1010.82
2018-09-11T07:13:46.563Z,1010.85
2018-09-11T07:14:46.437Z,1010.81
2018-09-11T07:15:46.329Z,1010.81
2018-09-11T07:16:46.230Z,1010.81
2018-09-11T07:17:46.128Z,1010.77
2018-09-11T07:18:46.053Z,1010.81
2018-09-11T07:19:46.017Z,1010.80
2018-09-11T07:20:45.820Z,1010.77
2018-09-11T07:21:45.709Z,1010.77
2018-09-11T07:22:45.600Z,1010.72
2018-09-11T07:23:45.530Z,1010.68
2018-09-11T07:24:45.389Z,1010.73
2018-09-11T07:25:45.279Z,1010.70
2018-09-11T07:26:45.171Z,1010.76
2018-09-11T07:27:45.062Z,1010.74
2018-09-11T07:28:44.980Z,1010.81
2018-09-11T07:29:44.848Z,1010.77
2018-09-11T07:30:44.736Z,1010.80
2018-09-11T07:31:44.622Z,1010.79
2018-09-11T07:32:44.519Z,1010.79
2018-09-11T07:33:44.429Z,1010.81
2018-09-11T07:34:44.295Z,1010.80
2018-09-11T07:35:44.183Z,1010.82
2018-09-11T07:36:44.072Z,1010.80
2018-09-11T07:37:43.988Z,1010.83
2018-09-11T07:38:43.864Z,1010.82
2018-09-11T07:39:43.719Z,1010.86
2018-09-11T07:40:43.598Z,1010.87
2018-09-11T07:41:43.481Z,1010.83
2018-09-11T07:42:43.364Z,1010.85
2018-09-11T07:43:43.269Z,1010.87
2018-09-11T07:44:43.123Z,1010.81
2018-09-11T07:45:43.005Z,1010.83
2018-09-11T07:46:42.884Z,1010.78
2018-09-11T07:47:42.772Z,1010.85
2018-09-11T07:48:42.700Z,1010.83
2018-09-11T07:49:42.539Z,1010.78
2018-09-11T07:50:42.424Z,1010.82
2018-09-11T07:51:42.322Z,1010.82
2018-09-11T07:52:42.296Z,1010.86
2018-09-11T07:53:42.058Z,1010.81
2018-09-11T07:54:41.957Z,1010.84
2018-09-11T07:55:41.807Z,1010.86
2018-09-11T07:56:41.687Z,1010.86
2018-09-11T07:57:41.640Z,1010.88
2018-09-11T07:58:41.447Z,1010.87
2018-09-11T07:59:41.359Z,1010.89
2018-09-11T08:00:41.201Z,1010.91
2018-09-11T08:01:41.078Z,1010.89
2018-09-11T08:02:40.951Z,1010.91
2018-09-11T08:03:40.825Z,1010.88
2018-09-11T08:04:40.730Z,1010.87
2018-09-11T08:05:40.586Z,1010.90
2018-09-11T08:06:40.461Z,1010.92
2018-09-11T08:07:40.333Z,1010.89
2018-09-11T08:08:40.208Z,1010.84
2018-09-11T08:09:40.288Z,1010.89
2018-09-11T08:10:39.946Z,1010.90
2018-09-11T08:11:39.815Z,1010.88
2018-09-11T08:12:39.684Z,1010.89
2018-09-11T08:13:39.556Z,1010.89
2018-09-11T08:14:39.452Z,1010.87
2018-09-11T08:15:39.298Z,1010.85
2018-09-11T08:16:39.170Z,1010.86
2018-09-11T08:17:39.039Z,1010.82
2018-09-11T08:18:38.906Z,1010.83
2018-09-11T08:19:38.857Z,1010.87
2018-09-11T08:20:38.640Z,1010.87
2018-09-11T08:21:38.518Z,1010.90
2018-09-11T08:22:38.381Z,1010.91
2018-09-11T08:23:38.256Z,1010.94
2018-09-11T08:24:38.157Z,1010.95
2018-09-11T08:25:37.994Z,1010.95
2018-09-11T08:26:37.871Z,1010.97
2018-09-11T08:27:37.730Z,1010.95
2018-09-11T08:28:37.601Z,1010.97
2018-09-11T08:29:37.499Z,1010.97
2018-09-11T08:30:37.330Z,1010.98
2018-09-11T08:31:37.213Z,1010.99
2018-09-11T08:32:37.066Z,1010.95
2018-09-11T08:33:36.929Z,1010.94
2018-09-11T08:34:36.828Z,1010.94
2018-09-11T08:35:36.658Z,1010.94
2018-09-11T08:36:36.511Z,1010.94
2018-09-11T08:37:36.378Z,1010.94
2018-09-11T08:38:36.234Z,1010.94
2018-09-11T08:39:36.117Z,1010.90
2018-09-11T08:40:35.950Z,1010.92
2018-09-11T08:41:35.818Z,1010.91
2018-09-11T08:42:35.691Z,1010.91
2018-09-11T08:43:35.534Z,1010.95
2018-09-11T08:44:35.427Z,1010.96
2018-09-11T08:45:35.254Z,1010.93
2018-09-11T08:46:35.139Z,1010.96
2018-09-11T08:47:34.968Z,1010.95
2018-09-11T08:48:34.832Z,1010.93
2018-09-11T08:49:34.724Z,1010.91
2018-09-11T08:50:34.527Z,1010.92
2018-09-11T08:51:34.372Z,1010.93
2018-09-11T08:52:34.300Z,1010.91
2018-09-11T08:53:34.067Z,1010.89
2018-09-11T08:54:33.912Z,1010.90
2018-09-11T08:55:34.068Z,1010.94
2018-09-11T08:56:33.607Z,1010.93
2018-09-11T08:57:33.473Z,1010.96
2018-09-11T08:58:33.359Z,1010.92
2018-09-11T08:59:33.161Z,1010.95
2018-09-11T09:00:33.039Z,1010.97
2018-09-11T09:01:32.856Z,1010.93
2018-09-11T09:02:32.697Z,1010.94
2018-09-11T09:03:32.553Z,1010.93
2018-09-11T09:04:32.397Z,1010.93
2018-09-11T09:05:32.272Z,1010.92
2018-09-11T09:06:32.093Z,1010.96
2018-09-11T09:07:31.934Z,1010.98
2018-09-11T09:08:31.799Z,1010.96
2018-09-11T09:09:31.619Z,1010.96
2018-09-11T09:10:31.489Z,1010.98
2018-09-11T09:11:31.319Z,1010.92
2018-09-11T09:12:31.154Z,1010.94
2018-09-11T09:13:31.022Z,1010.97
2018-09-11T09:14:30.837Z,1010.92
2018-09-11T09:15:30.764Z,1010.93
2018-09-11T09:16:30.528Z,1010.89
2018-09-11T09:17:30.372Z,1010.89
2018-09-11T09:18:30.215Z,1010.93
2018-09-11T09:19:30.059Z,1010.96
2018-09-11T09:20:29.931Z,1010.95
2018-09-11T09:21:29.749Z,1011.02
2018-09-11T09:22:29.589Z,1011.00
2018-09-11T09:23:29.429Z,1010.98
2018-09-11T09:24:29.264Z,1010.98
2018-09-11T09:25:29.134Z,1010.94
2018-09-11T09:26:28.966Z,1011.01
2018-09-11T09:27:28.800Z,1010.96
2018-09-11T09:28:28.635Z,1010.94
2018-09-11T09:29:28.478Z,1010.99
2018-09-11T09:30:28.335Z,1011.00
2018-09-11T09:31:28.148Z,1011.00
2018-09-11T09:32:27.992Z,1011.01
2018-09-11T09:33:27.868Z,1010.98
2018-09-11T09:34:27.673Z,1010.97
2018-09-11T09:35:27.535Z,1010.97
2018-09-11T09:36:27.389Z,1011.00
2018-09-11T09:37:27.194Z,1010.98
2018-09-11T09:38:27.030Z,1010.99
2018-09-11T09:39:26.866Z,1010.97
2018-09-11T09:40:26.733Z,1010.93
2018-09-11T09:41:26.543Z,1010.94
2018-09-11T09:42:26.386Z,1010.94
2018-09-11T09:43:26.226Z,1010.93
2018-09-11T09:44:26.061Z,1010.89
2018-09-11T09:45:25.934Z,1010.88
2018-09-11T09:46:25.737Z,1010.89
2018-09-11T09:47:25.580Z,1010.86
2018-09-11T09:48:25.414Z,1010.81
2018-09-11T09:49:25.247Z,1010.82
2018-09-11T09:50:25.081Z,1010.82
2018-09-11T09:51:24.940Z,1010.81
2018-09-11T09:52:24.753Z,1010.76
2018-09-11T09:53:24.581Z,1010.76
2018-09-11T09:54:24.415Z,1010.77
2018-09-11T09:55:24.255Z,1010.76
2018-09-11T09:56:24.096Z,1010.79
2018-09-11T09:57:23.898Z,1010.78
2018-09-11T09:58:23.729Z,1010.83
2018-09-11T09:59:23.562Z,1010.85
2018-09-11T10:00:23.383Z,1010.83
2018-09-11T10:01:23.239Z,1010.78
2018-09-11T10:02:23.039Z,1010.76
2018-09-11T10:03:22.872Z,1010.74
2018-09-11T10:04:22.693Z,1010.72
2018-09-11T10:05:22.517Z,1010.72
2018-09-11T10:06:22.379Z,1010.72
2018-09-11T10:07:22.184Z,1010.75
2018-09-11T10:08:22.001Z,1010.74
2018-09-11T10:09:21.830Z,1010.71
2018-09-11T10:10:21.663Z,1010.72
2018-09-11T10:11:21.517Z,1010.67
2018-09-11T10:12:21.310Z,1010.66
2018-09-11T10:13:21.137Z,1010.66
2018-09-11T10:14:20.963Z,1010.62
2018-09-11T10:15:20.793Z,1010.64
2018-09-11T10:16:20.647Z,1010.56
2018-09-11T10:17:20.436Z,1010.59
2018-09-11T10:18:20.260Z,1010.59
2018-09-11T10:19:20.080Z,1010.55
2018-09-11T10:20:19.906Z,1010.53
2018-09-11T10:21:19.762Z,1010.54
2018-09-11T10:22:19.557Z,1010.51
2018-09-11T10:23:19.378Z,1010.52
2018-09-11T10:24:19.199Z,1010.51
2018-09-11T10:25:19.038Z,1010.49
2018-09-11T10:26:18.846Z,1010.50
2018-09-11T10:27:18.697Z,1010.48
2018-09-11T10:28:18.482Z,1010.48
2018-09-11T10:29:18.301Z,1010.47
2018-09-11T10:30:18.129Z,1010.46
2018-09-11T10:31:17.955Z,1010.48
2018-09-11T10:32:17.799Z,1010.45
2018-09-11T10:33:17.589Z,1010.43
2018-09-11T10:34:17.403Z,1010.44
2018-09-11T10:35:17.220Z,1010.46
2018-09-11T10:36:17.042Z,1010.45
2018-09-11T10:37:16.890Z,1010.47
2018-09-11T10:38:16.692Z,1010.43
2018-09-11T10:39:16.523Z,1010.43
2018-09-11T10:40:16.327Z,1010.39
2018-09-11T10:41:16.148Z,1010.37
2018-09-11T10:42:15.993Z,1010.34
2018-09-11T10:43:15.792Z,1010.40
2018-09-11T10:44:15.611Z,1010.40
2018-09-11T10:45:15.435Z,1010.34
2018-09-11T10:46:15.257Z,1010.30
2018-09-11T10:47:15.104Z,1010.29
2018-09-11T10:48:14.908Z,1010.33
2018-09-11T10:49:14.732Z,1010.30
2018-09-11T10:50:14.559Z,1010.33
2018-09-11T10:51:14.385Z,1010.32
2018-09-11T10:52:14.247Z,1010.21
2018-09-11T10:53:14.044Z,1010.23
2018-09-11T10:54:13.873Z,1010.26
2018-09-11T10:55:13.700Z,1010.28
2018-09-11T10:56:13.525Z,1010.31
2018-09-11T10:57:13.374Z,1010.36
2018-09-11T10:58:13.166Z,1010.32
2018-09-11T10:59:12.991Z,1010.37
2018-09-11T11:00:12.820Z,1010.31
2018-09-11T11:01:12.646Z,1010.25
2018-09-11T11:02:12.485Z,1010.24
2018-09-11T11:03:12.277Z,1010.25
2018-09-11T11:04:12.101Z,1010.19
2018-09-11T11:05:11.911Z,1010.22
2018-09-11T11:06:11.728Z,1010.15
2018-09-11T11:07:11.586Z,1010.14
2018-09-11T11:08:11.369Z,1010.17
2018-09-11T11:09:11.194Z,1010.17
2018-09-11T11:10:11.011Z,1010.13
2018-09-11T11:11:10.828Z,1010.04
2018-09-11T11:12:10.652Z,1009.97
2018-09-11T11:13:10.486Z,1010.03
2018-09-11T11:14:10.277Z,1010.06
2018-09-11T11:15:10.089Z,1009.94
2018-09-11T11:16:09.916Z,1009.95
2018-09-11T11:17:09.777Z,1010.03
2018-09-11T11:18:09.544Z,1009.91
2018-09-11T11:19:09.331Z,1009.92
2018-09-11T11:20:09.137Z,1009.94
2018-09-11T11:21:08.947Z,1009.93
2018-09-11T11:22:08.756Z,1009.89
2018-09-11T11:23:08.602Z,1009.90
2018-09-11T11:24:08.377Z,1009.93
2018-09-11T11:25:08.182Z,1009.88
2018-09-11T11:26:07.997Z,1009.86
2018-09-11T11:27:07.913Z,1009.87
2018-09-11T11:28:07.626Z,1009.82
2018-09-11T11:29:07.406Z,1009.82
2018-09-11T11:30:07.208Z,1009.80
2018-09-11T11:31:07.011Z,1009.84
2018-09-11T11:32:06.813Z,1009.89
2018-09-11T11:33:06.644Z,1009.80
2018-09-11T11:34:06.424Z,1009.74
2018-09-11T11:35:06.225Z,1009.75
2018-09-11T11:36:06.073Z,1009.73
2018-09-11T11:37:05.982Z,1009.94
2018-09-11T11:38:05.661Z,1009.85
2018-09-11T11:39:05.432Z,1009.72
2018-09-11T11:40:05.238Z,1009.70
2018-09-11T11:41:05.045Z,1009.67
2018-09-11T11:42:04.848Z,1009.68
2018-09-11T11:43:04.677Z,1009.68
2018-09-11T11:44:04.454Z,1009.66
2018-09-11T11:45:04.255Z,1009.67
2018-09-11T11:46:04.058Z,1009.63
2018-09-11T11:47:03.857Z,1009.70
2018-09-11T11:48:03.742Z,1009.68
2018-09-11T11:49:03.464Z,1009.65
2018-09-11T11:50:03.265Z,1009.77
2018-09-11T11:51:03.065Z,1009.70
2018-09-11T11:52:02.864Z,1009.66
2018-09-11T11:53:02.686Z,1009.72
2018-09-11T11:54:02.461Z,1009.70
2018-09-11T11:55:02.368Z,1009.79
2018-09-11T11:56:02.046Z,1009.74
2018-09-11T11:57:01.841Z,1009.75
2018-09-11T11:58:01.665Z,1009.73
2018-09-11T11:59:01.432Z,1009.68
2018-09-11T12:00:01.221Z,1009.70
2018-09-11T12:01:01.009Z,1009.66
2018-09-11T12:02:00.889Z,1009.65
2018-09-11T12:03:00.624Z,1009.60
2018-09-11T12:04:00.384Z,1009.60